Aviation Digital Data Service (ADDS)

Output produced by METARs form (0426 UTC 26 May 2018)
found at http://www.aviationweather.gov/adds/metars/
 
TAF KFAF 251806Z 2518/2624 19009KT 9999 FEW180 QNH2996INS 
     BECMG 2602/2603 20006KT 9999 SCT025 BKN040 QNH2992INS 
     BECMG 2607/2608 20006KT 8000 BR SCT010 BKN030 QNH2991INS 
     BECMG 2613/2614 24012G18KT 9999 NSW SCT030 SCT070 QNH2990INS 
     BECMG 2621/2622 24012G18KT 9000 -SHRA BKN030 BKN065 QNH2990INS TX29/2521Z TN20/2610Z LAST NO AMDS AFT 2603 NEXT 2910
       
KFAR 252340Z 2600/2624 27013G30KT P6SM FEW080 
     FM260200 24008KT P6SM FEW080 
     FM260800 VRB04KT P6SM FEW250 
     FM261600 27006KT P6SM SKC 
     FM262300 30008KT P6SM SKC
       
KFAT 252325Z 2600/2624 32005KT P6SM BKN040 OVC050 
     TEMPO 2600/2602 -SHRA BKN030 OVC040 
     FM260300 31010KT P6SM SCT050 BKN070 
     FM261200 31011KT P6SM SCT100
       
KFAY 252322Z 2600/2624 15010KT P6SM VCSH SCT030 BKN060 
     FM260800 18004KT P6SM SCT005 BKN012 
     TEMPO 2610/2613 BKN005 
     FM261500 20009KT P6SM SCT025 BKN040
       
TAF AMD KFBG 260355Z 2603/2707 18006KT 9999 BKN025 QNH2997INS 
     TEMPO 2603/2606 3200 HZ 
     BECMG 2607/2608 20006KT 6000 BR BKN008 QNH2996INS 
     BECMG 2613/2614 18009KT 9999 NSW SCT025 QNH2986INS 
     TEMPO 2619/2623 21010G15KT 4800 -SHRA BKN025 
     BECMG 2702/2703 18006KT 9999 BKN010 QNH2995INS TX29/2619Z TN21/2608Z
       
TAF KFCS 252107Z 2521/2703 16010G15KT 9999 FEW150 QNH3001INS 
     TEMPO 2521/2524 14015G25KT 520009 
     BECMG 2602/2603 32006KT 9999 SKC QNH2997INS 
     BECMG 2616/2617 20010G15KT 9999 FEW100 FEW250 QNH2996INS 
     BECMG 2618/2619 16015G25KT 9999 FEW100 SCT250 520009 QNH2985INS 
     TEMPO 2620/2624 17020G30KT 530009 
     BECMG 2701/2702 19010G15KT 9999 SCT120 BKN220 QNH2986INS TX31/2523Z TN12/2612Z
       
KFDY 252323Z 2600/2624 21006KT P6SM SKC 
     FM261000 20005KT P6SM BKN120 
     FM262000 20006KT P6SM VCSH BKN060
       
TAF KFFO 260300Z 2603/2709 VRB06KT 9999 FEW030 QNH2984INS 
     BECMG 2609/2610 VRB06KT 8000 -SHRA OVC090 QNH2984INS 
     BECMG 2615/2616 23009KT 9999 NSW BKN030 OVC100 QNH2980INS 
     TEMPO 2618/2623 23015G25KT 8000 -TSRA SCT020 OVC030CB 
     BECMG 2705/2706 VRB06KT 3200 BR SKC QNH2988INS TX27/2620Z TN18/2608Z
       
TAF KFHU 260205Z 2602/2708 26012G18KT 9999 SCT250 QNH3006INS 
     BECMG 2606/2607 26012KT 9999 BKN250 QNH3001INS 
     BECMG 2617/2618 22015G20KT 9999 SCT200 BKN250 QNH2995INS 
     TEMPO 2620/2624 23020G35KT 520009 
     BECMG 2700/2701 26010G15KT 9999 SKC QNH2996INS 
     BECMG 2703/2704 26012KT 9999 SKC QNH2999INS TX33/2622Z TN14/2612Z LAST NO AMDS AFT 2606 NEXT 2902
       
KFKL 252320Z 2600/2624 22004KT P6SM SKC 
     FM262200 22005KT P6SM VCTS BKN035CB
       
KFLG 252327Z 2600/2624 21017G28KT P6SM SKC 
     FM260200 21007KT P6SM SKC 
     FM261500 21010G20KT P6SM SKC 
     FM261830 22018G32KT P6SM SKC
       
KFLL 260305Z 2603/2706 11010KT P6SM VCSH FEW015 SCT025 BKN100 
     TEMPO 2603/2606 VRB11KT 6SM SHRA SCT015 BKN025 
     FM261000 12012KT 6SM SHRA SCT025 OVC035 
     FM261500 13015KT 6SM SHRA VCTS FEW007 SCT015 BKN025CB
       
KFLO 252320Z 2600/2624 17004KT P6SM SCT040 BKN080 
     TEMPO 2609/2613 3SM BR BKN006 
     FM261300 19005KT P6SM SCT015 BKN025 
     FM261600 21008KT P6SM BKN035
       
KFMH 252329Z 2600/2624 23018G26KT P6SM FEW250 WS020/25045KT 
     FM260200 23013G21KT P6SM FEW250 WS020/25045KT 
     FM261000 22015KT 6SM BR FEW250 
     FM261700 23011KT P6SM SCT060 
     FM262000 22010G17KT P6SM BKN060 
     FM262300 22007KT 4SM BR VCSH BKN050
       
KFMN 252320Z 2600/2624 22008KT P6SM SKC 
     FM260200 27006KT P6SM SKC 
     FM260800 07007KT P6SM FEW250 
     FM261800 15008KT P6SM SCT250 
     FM262100 17018G28KT P6SM BKN200
       
KFMY 252320Z 2600/2624 12007KT 6SM -RA SCT030 OVC080 
     FM260300 11007KT P6SM SCT025 BKN040 OVC080 
     FM261000 10008KT P6SM VCSH SCT015 BKN025 OVC040 
     FM261400 12012G18KT 5SM -RA VCTS FEW005 SCT015CB OVC025
       
KFNT 252320Z 2600/2624 23008KT P6SM SCT070 SCT250 
     FM260400 21005KT P6SM BKN250 
     FM261200 22006KT P6SM BKN200 
     FM261500 22008KT P6SM SCT050 BKN200
       
KFOD 260140Z 2602/2624 28006KT P6SM VCTS BKN050CB 
     FM260230 28006KT P6SM SCT200
       
KFOE 252320Z 2600/2624 22007KT P6SM FEW250
       
KFPR 252335Z 2600/2624 18005KT P6SM VCSH SCT025 SCT040 OVC250 
     FM260200 14004KT P6SM FEW025 SCT120 OVC250 
     FM261400 12013G20KT P6SM -RA VCSH SCT020 BKN040 OVC250
       
TAF AMD KFRI 252024Z 2520/2622 21009KT 9999 SCT080 SCT150 QNH2972INS 
     BECMG 2523/2524 20006KT 9999 FEW150 QNH2972INS TX36/2520Z TN18/2611Z LAST NO AMDS AFT 2521 NEXT 2900
       
KFSD 252320Z 2600/2624 29005KT P6SM SKC 
     FM260400 27004KT P6SM SKC
       
TAF KFSI 252100Z 2521/2703 14012KT 9999 SKC QNH2978INS 
     BECMG 2601/2602 18009KT 9000 -SHRA BKN030 QNH2976INS 
     TEMPO 2602/2604 18015G25KT 6000 -TSRA BKN025CB 
     BECMG 2605/2606 12009KT 9999 NSW FEW030 QNH2979INS 
     BECMG 2612/2613 19010G15KT 9999 SKC QNH2976INS 
     BECMG 2618/2619 18009KT 9999 SKC QNH2973INS TX34/2521Z TN22/2611Z LAST NO AMDS AFT 2523 NEXT 2913
       
KFSM 252325Z 2600/2624 VRB03KT P6SM BKN250 
     FM260900 05003KT 5SM BR BKN250 
     FM261300 07002KT P6SM SCT250 
     FM261800 10005KT P6SM SCT250
       
KFST 252329Z 2600/2624 VRB04KT P6SM SKC 
     FM260200 17016KT P6SM SKC 
     FM261200 19010KT P6SM SKC 
     FM261800 15008KT P6SM SKC
       
TAF KFTK 260100Z 2601/2707 VRB06KT 9999 SCT030 QNH2986INS 
     TEMPO 2618/2623 23010G15KT 6000 -TSRA FEW018 OVC030CB 
     BECMG 2622/2623 VRB06KT 9999 SCT040 BKN140 QNH2986INS TX29/2619Z TN20/2608Z
       
KFTW 260320Z 2603/2624 15008KT P6SM SCT250 
     FM260600 16010KT P6SM VCSH SCT060 BKN250 
     FM261000 17010KT P6SM SCT080 BKN250
       
KFTY 260243Z 2603/2624 17006KT P6SM FEW015 OVC050 
     TEMPO 2603/2607 3SM TSRA BR BKN015CB 
     FM260700 00000KT P6SM VCSH OVC025 
     FM260900 00000KT 5SM BR OVC015 
     FM261500 00000KT P6SM VCSH BKN025 
     FM261800 18004KT P6SM BKN035 
     PROB30 2618/2624 VRB10G20KT 3SM TSRA BR BKN025CB
       
KFVE 252321Z 2600/2624 30007KT P6SM BKN050 
     FM260400 31006KT P6SM SCT070 
     FM261600 35010G20KT P6SM SCT060 
     FM262100 36009KT P6SM FEW080 
     FM262230 36008KT P6SM SKC
       
KFWA 260138Z 2602/2624 24003KT P6SM SCT250 
     FM260600 21003KT P6SM VCSH BKN070 
     TEMPO 2608/2612 6SM -SHRA BR 
     FM261400 21005KT P6SM BKN100
       
KFXE 260305Z 2603/2624 11010KT P6SM VCSH FEW015 SCT025 BKN100 
     TEMPO 2603/2606 VRB11KT 6SM SHRA SCT015 BKN025 
     FM261300 12011KT 6SM SHRA SCT025 OVC035 
     FM261600 13015KT 6SM SHRA VCTS FEW007 SCT015 BKN025CB
       
KFYV 260401Z 2604/2624 00000KT 2SM BR BKN002 
     FM260600 00000KT 1SM BR SCT002 OVC250 
     FM260700 00000KT 1/4SM FG VV001 
     FM261300 00000KT 4SM BR SKC 
     FM261400 VRB03KT P6SM FEW250